sensor_id;sensor_type;location;lat;lon;timestamp;pressure;altitude;pressure_sealevel;temperature;humidity
62201;BME280;48197;42.732;27.192;2023-05-23T00:01:05;99332.75;;;14.44;100.00
62201;BME280;48197;42.732;27.192;2023-05-23T00:03:32;99350.66;;;14.43;100.00
62201;BME280;48197;42.732;27.192;2023-05-23T00:06:00;99335.53;;;14.44;100.00
62201;BME280;48197;42.732;27.192;2023-05-23T00:08:27;99339.00;;;14.48;100.00
62201;BME280;48197;42.732;27.192;2023-05-23T00:10:54;99337.69;;;14.53;100.00
62201;BME280;48197;42.732;27.192;2023-05-23T00:13:20;99347.19;;;14.56;100.00
62201;BME280;48197;42.732;27.192;2023-05-23T00:15:47;99343.16;;;14.57;100.00
62201;BME280;48197;42.732;27.192;2023-05-23T00:18:14;99347.06;;;14.59;100.00
62201;BME280;48197;42.732;27.192;2023-05-23T00:20:42;99340.63;;;14.62;100.00
62201;BME280;48197;42.732;27.192;2023-05-23T00:23:09;99344.19;;;14.63;100.00
62201;BME280;48197;42.732;27.192;2023-05-23T00:25:36;99331.06;;;14.63;100.00
62201;BME280;48197;42.732;27.192;2023-05-23T00:28:03;99329.50;;;14.62;100.00
62201;BME280;48197;42.732;27.192;2023-05-23T00:30:30;99326.81;;;14.59;100.00
62201;BME280;48197;42.732;27.192;2023-05-23T00:32:57;99323.25;;;14.58;100.00
62201;BME280;48197;42.732;27.192;2023-05-23T00:35:25;99328.88;;;14.55;100.00
62201;BME280;48197;42.732;27.192;2023-05-23T00:37:52;99323.00;;;14.53;100.00
62201;BME280;48197;42.732;27.192;2023-05-23T00:40:19;99328.66;;;14.49;100.00
62201;BME280;48197;42.732;27.192;2023-05-23T00:42:46;99321.31;;;14.42;100.00
62201;BME280;48197;42.732;27.192;2023-05-23T00:45:13;99321.84;;;14.37;100.00
62201;BME280;48197;42.732;27.192;2023-05-23T00:47:40;99317.06;;;14.38;100.00
62201;BME280;48197;42.732;27.192;2023-05-23T00:50:07;99320.28;;;14.36;100.00
62201;BME280;48197;42.732;27.192;2023-05-23T00:52:34;99312.47;;;14.31;100.00
62201;BME280;48197;42.732;27.192;2023-05-23T00:55:01;99309.91;;;14.24;100.00
62201;BME280;48197;42.732;27.192;2023-05-23T00:57:27;99306.44;;;14.20;100.00
62201;BME280;48197;42.732;27.192;2023-05-23T00:59:54;99301.78;;;14.17;100.00
62201;BME280;48197;42.732;27.192;2023-05-23T01:02:20;99303.66;;;14.20;100.00
62201;BME280;48197;42.732;27.192;2023-05-23T01:04:48;99298.81;;;14.37;100.00
62201;BME280;48197;42.732;27.192;2023-05-23T01:07:21;99300.53;;;14.47;100.00
62201;BME280;48197;42.732;27.192;2023-05-23T01:09:48;99290.44;;;14.53;100.00
62201;BME280;48197;42.732;27.192;2023-05-23T01:15:05;99299.91;;;14.56;100.00
62201;BME280;48197;42.732;27.192;2023-05-23T01:20:23;99294.84;;;14.50;100.00
62201;BME280;48197;42.732;27.192;2023-05-23T01:30:43;99298.94;;;14.46;100.00
62201;BME280;48197;42.732;27.192;2023-05-23T01:33:12;99291.84;;;14.45;100.00
62201;BME280;48197;42.732;27.192;2023-05-23T01:35:39;99290.50;;;14.49;100.00
62201;BME280;48197;42.732;27.192;2023-05-23T01:38:09;99292.06;;;14.50;100.00
62201;BME280;48197;42.732;27.192;2023-05-23T01:40:35;99290.31;;;14.57;100.00
62201;BME280;48197;42.732;27.192;2023-05-23T01:43:02;99287.69;;;14.66;100.00
62201;BME280;48197;42.732;27.192;2023-05-23T01:45:29;99286.69;;;14.73;100.00
62201;BME280;48197;42.732;27.192;2023-05-23T01:47:56;99283.56;;;14.70;100.00
62201;BME280;48197;42.732;27.192;2023-05-23T01:50:24;99275.22;;;14.70;100.00
62201;BME280;48197;42.732;27.192;2023-05-23T01:52:52;99278.78;;;14.71;100.00
62201;BME280;48197;42.732;27.192;2023-05-23T01:55:19;99275.66;;;14.69;100.00
62201;BME280;48197;42.732;27.192;2023-05-23T01:57:55;99272.53;;;14.67;100.00
62201;BME280;48197;42.732;27.192;2023-05-23T02:00:23;99268.75;;;14.61;100.00
62201;BME280;48197;42.732;27.192;2023-05-23T02:02:50;99271.19;;;14.59;100.00
62201;BME280;48197;42.732;27.192;2023-05-23T02:05:18;99265.75;;;14.55;100.00
62201;BME280;48197;42.732;27.192;2023-05-23T02:07:45;99267.50;;;14.49;100.00
62201;BME280;48197;42.732;27.192;2023-05-23T02:10:11;99277.47;;;14.46;100.00
62201;BME280;48197;42.732;27.192;2023-05-23T02:12:37;99274.16;;;14.52;100.00
62201;BME280;48197;42.732;27.192;2023-05-23T02:15:04;99274.50;;;14.54;100.00
62201;BME280;48197;42.732;27.192;2023-05-23T02:17:31;99276.88;;;14.55;100.00
62201;BME280;48197;42.732;27.192;2023-05-23T02:19:58;99274.88;;;14.56;100.00
62201;BME280;48197;42.732;27.192;2023-05-23T02:22:25;99272.09;;;14.56;100.00
62201;BME280;48197;42.732;27.192;2023-05-23T02:24:51;99279.97;;;14.57;100.00
62201;BME280;48197;42.732;27.192;2023-05-23T02:27:18;99287.13;;;14.58;100.00
62201;BME280;48197;42.732;27.192;2023-05-23T02:29:45;99279.53;;;14.59;100.00
62201;BME280;48197;42.732;27.192;2023-05-23T02:32:12;99280.78;;;14.58;100.00
62201;BME280;48197;42.732;27.192;2023-05-23T02:34:38;99285.44;;;14.61;100.00
62201;BME280;48197;42.732;27.192;2023-05-23T02:37:06;99282.00;;;14.69;100.00
62201;BME280;48197;42.732;27.192;2023-05-23T02:39:34;99288.69;;;14.72;100.00
62201;BME280;48197;42.732;27.192;2023-05-23T02:42:01;99289.59;;;14.82;100.00
62201;BME280;48197;42.732;27.192;2023-05-23T02:44:28;99294.50;;;14.90;100.00
62201;BME280;48197;42.732;27.192;2023-05-23T02:46:54;99287.16;;;14.97;100.00
62201;BME280;48197;42.732;27.192;2023-05-23T02:49:21;99287.47;;;14.99;100.00
62201;BME280;48197;42.732;27.192;2023-05-23T02:51:48;99281.34;;;15.04;100.00
62201;BME280;48197;42.732;27.192;2023-05-23T02:54:15;99294.81;;;15.05;100.00
62201;BME280;48197;42.732;27.192;2023-05-23T02:56:44;99295.94;;;15.08;100.00
62201;BME280;48197;42.732;27.192;2023-05-23T02:59:10;99292.72;;;15.09;100.00
62201;BME280;48197;42.732;27.192;2023-05-23T03:01:37;99292.38;;;15.20;100.00
62201;BME280;48197;42.732;27.192;2023-05-23T03:04:04;99293.03;;;15.24;100.00
62201;BME280;48197;42.732;27.192;2023-05-23T03:06:31;99281.81;;;15.28;100.00
62201;BME280;48197;42.732;27.192;2023-05-23T03:09:00;99278.53;;;15.29;100.00
62201;BME280;48197;42.732;27.192;2023-05-23T03:11:27;99283.00;;;15.40;100.00
62201;BME280;48197;42.732;27.192;2023-05-23T03:13:55;99283.22;;;15.45;100.00
62201;BME280;48197;42.732;27.192;2023-05-23T03:16:22;99285.41;;;15.50;100.00
62201;BME280;48197;42.732;27.192;2023-05-23T03:18:49;99279.41;;;15.52;100.00
62201;BME280;48197;42.732;27.192;2023-05-23T03:21:16;99272.16;;;15.55;100.00
62201;BME280;48197;42.732;27.192;2023-05-23T03:23:43;99275.72;;;15.55;100.00
62201;BME280;48197;42.732;27.192;2023-05-23T03:26:10;99279.63;;;15.58;100.00
62201;BME280;48197;42.732;27.192;2023-05-23T03:28:37;99275.16;;;15.60;100.00
62201;BME280;48197;42.732;27.192;2023-05-23T03:31:04;99274.25;;;15.63;100.00
62201;BME280;48197;42.732;27.192;2023-05-23T03:33:31;99271.69;;;15.69;100.00
62201;BME280;48197;42.732;27.192;2023-05-23T03:35:57;99275.94;;;15.74;100.00
62201;BME280;48197;42.732;27.192;2023-05-23T03:38:24;99278.59;;;15.77;100.00
62201;BME280;48197;42.732;27.192;2023-05-23T03:40:52;99279.59;;;15.83;100.00
62201;BME280;48197;42.732;27.192;2023-05-23T03:43:19;99288.47;;;15.91;100.00
62201;BME280;48197;42.732;27.192;2023-05-23T03:45:46;99293.00;;;15.98;100.00
62201;BME280;48197;42.732;27.192;2023-05-23T03:48:13;99291.19;;;16.04;100.00
62201;BME280;48197;42.732;27.192;2023-05-23T03:50:40;99298.19;;;16.08;100.00
62201;BME280;48197;42.732;27.192;2023-05-23T03:53:07;99297.16;;;16.15;100.00
62201;BME280;48197;42.732;27.192;2023-05-23T03:55:34;99290.69;;;16.18;100.00
62201;BME280;48197;42.732;27.192;2023-05-23T03:58:01;99299.13;;;16.27;100.00
62201;BME280;48197;42.732;27.192;2023-05-23T04:00:26;99295.44;;;16.30;100.00
62201;BME280;48197;42.732;27.192;2023-05-23T04:02:53;99306.66;;;16.40;100.00
62201;BME280;48197;42.732;27.192;2023-05-23T04:05:19;99298.81;;;16.47;100.00
62201;BME280;48197;42.732;27.192;2023-05-23T04:07:47;99290.16;;;16.54;100.00
62201;BME280;48197;42.732;27.192;2023-05-23T04:10:14;99287.88;;;16.62;100.00
62201;BME280;48197;42.732;27.192;2023-05-23T04:12:41;99282.75;;;16.83;100.00
62201;BME280;48197;42.732;27.192;2023-05-23T04:15:08;99286.34;;;16.92;100.00
62201;BME280;48197;42.732;27.192;2023-05-23T04:17:35;99289.78;;;16.97;100.00
62201;BME280;48197;42.732;27.192;2023-05-23T04:20:06;99285.28;;;16.90;100.00
62201;BME280;48197;42.732;27.192;2023-05-23T04:22:33;99287.22;;;16.80;100.00
62201;BME280;48197;42.732;27.192;2023-05-23T04:24:59;99289.34;;;16.76;100.00
62201;BME280;48197;42.732;27.192;2023-05-23T04:27:26;99289.16;;;16.70;100.00
62201;BME280;48197;42.732;27.192;2023-05-23T04:29:52;99293.06;;;16.73;100.00
62201;BME280;48197;42.732;27.192;2023-05-23T04:32:21;99293.06;;;16.73;100.00
62201;BME280;48197;42.732;27.192;2023-05-23T04:34:48;99296.19;;;16.75;100.00
62201;BME280;48197;42.732;27.192;2023-05-23T04:37:15;99303.84;;;16.62;100.00
62201;BME280;48197;42.732;27.192;2023-05-23T04:39:42;99308.84;;;16.67;100.00
62201;BME280;48197;42.732;27.192;2023-05-23T04:42:09;99311.47;;;16.70;100.00
62201;BME280;48197;42.732;27.192;2023-05-23T04:44:35;99311.03;;;16.72;100.00
62201;BME280;48197;42.732;27.192;2023-05-23T04:47:02;99290.56;;;16.97;100.00
62201;BME280;48197;42.732;27.192;2023-05-23T04:49:31;99307.97;;;17.10;100.00
62201;BME280;48197;42.732;27.192;2023-05-23T04:51:59;99312.06;;;17.28;100.00
62201;BME280;48197;42.732;27.192;2023-05-23T04:54:26;99307.91;;;17.32;100.00
62201;BME280;48197;42.732;27.192;2023-05-23T04:56:52;99313.13;;;17.21;100.00
62201;BME280;48197;42.732;27.192;2023-05-23T04:59:20;99309.72;;;17.17;100.00
62201;BME280;48197;42.732;27.192;2023-05-23T05:14:10;99333.53;;;17.40;100.00
62201;BME280;48197;42.732;27.192;2023-05-23T05:16:37;99339.25;;;17.37;100.00
62201;BME280;48197;42.732;27.192;2023-05-23T05:19:04;99338.63;;;17.32;100.00
62201;BME280;48197;42.732;27.192;2023-05-23T05:21:31;99337.69;;;17.26;100.00
62201;BME280;48197;42.732;27.192;2023-05-23T05:23:57;99328.69;;;17.31;100.00
62201;BME280;48197;42.732;27.192;2023-05-23T05:26:25;99329.66;;;17.38;100.00
62201;BME280;48197;42.732;27.192;2023-05-23T05:28:52;99340.53;;;17.45;100.00
62201;BME280;48197;42.732;27.192;2023-05-23T05:31:18;99330.31;;;17.51;100.00
62201;BME280;48197;42.732;27.192;2023-05-23T05:45:55;99335.09;;;18.09;100.00
62201;BME280;48197;42.732;27.192;2023-05-23T05:48:21;99343.47;;;18.28;100.00
62201;BME280;48197;42.732;27.192;2023-05-23T05:50:48;99344.09;;;18.41;100.00
62201;BME280;48197;42.732;27.192;2023-05-23T05:53:15;99346.88;;;18.78;100.00
62201;BME280;48197;42.732;27.192;2023-05-23T05:55:42;99354.78;;;19.31;100.00
62201;BME280;48197;42.732;27.192;2023-05-23T05:58:08;99334.72;;;19.24;100.00
62201;BME280;48197;42.732;27.192;2023-05-23T06:00:35;99339.22;;;18.88;100.00
62201;BME280;48197;42.732;27.192;2023-05-23T06:03:10;99357.41;;;18.65;100.00
62201;BME280;48197;42.732;27.192;2023-05-23T06:05:38;99361.81;;;18.56;100.00
62201;BME280;48197;42.732;27.192;2023-05-23T06:08:06;99358.22;;;18.47;100.00
62201;BME280;48197;42.732;27.192;2023-05-23T06:10:33;99350.63;;;18.38;100.00
62201;BME280;48197;42.732;27.192;2023-05-23T06:13:02;99348.44;;;18.42;100.00
62201;BME280;48197;42.732;27.192;2023-05-23T06:15:29;99346.72;;;18.54;100.00
62201;BME280;48197;42.732;27.192;2023-05-23T06:17:56;99357.44;;;18.55;100.00
62201;BME280;48197;42.732;27.192;2023-05-23T06:20:23;99360.22;;;18.74;100.00
62201;BME280;48197;42.732;27.192;2023-05-23T06:25:53;99345.28;;;18.95;100.00
62201;BME280;48197;42.732;27.192;2023-05-23T06:28:20;99349.28;;;19.04;100.00
62201;BME280;48197;42.732;27.192;2023-05-23T06:30:47;99350.38;;;19.06;100.00
62201;BME280;48197;42.732;27.192;2023-05-23T06:33:14;99341.63;;;19.13;100.00
62201;BME280;48197;42.732;27.192;2023-05-23T06:35:41;99347.91;;;19.42;100.00
62201;BME280;48197;42.732;27.192;2023-05-23T06:38:08;99343.31;;;19.53;100.00
62201;BME280;48197;42.732;27.192;2023-05-23T06:40:35;99336.56;;;19.60;100.00
62201;BME280;48197;42.732;27.192;2023-05-23T06:43:02;99344.31;;;19.74;100.00
62201;BME280;48197;42.732;27.192;2023-05-23T06:45:29;99342.94;;;19.94;100.00
62201;BME280;48197;42.732;27.192;2023-05-23T06:47:56;99336.59;;;20.08;100.00
62201;BME280;48197;42.732;27.192;2023-05-23T06:50:26;99336.25;;;19.91;100.00
62201;BME280;48197;42.732;27.192;2023-05-23T06:52:53;99340.84;;;20.04;100.00
62201;BME280;48197;42.732;27.192;2023-05-23T06:55:18;99344.72;;;20.06;100.00
62201;BME280;48197;42.732;27.192;2023-05-23T06:57:46;99347.16;;;20.13;100.00
62201;BME280;48197;42.732;27.192;2023-05-23T07:00:13;99333.25;;;20.19;100.00
62201;BME280;48197;42.732;27.192;2023-05-23T07:02:40;99331.63;;;20.27;100.00
62201;BME280;48197;42.732;27.192;2023-05-23T07:05:07;99343.91;;;20.30;100.00
62201;BME280;48197;42.732;27.192;2023-05-23T07:07:34;99341.75;;;20.25;100.00
62201;BME280;48197;42.732;27.192;2023-05-23T07:10:01;99338.31;;;20.45;100.00
62201;BME280;48197;42.732;27.192;2023-05-23T07:12:28;99329.25;;;21.09;100.00
62201;BME280;48197;42.732;27.192;2023-05-23T07:14:55;99340.97;;;20.93;100.00
62201;BME280;48197;42.732;27.192;2023-05-23T07:17:22;99342.06;;;20.95;100.00
62201;BME280;48197;42.732;27.192;2023-05-23T07:19:50;99335.44;;;21.13;100.00
62201;BME280;48197;42.732;27.192;2023-05-23T07:22:16;99331.41;;;21.50;100.00
62201;BME280;48197;42.732;27.192;2023-05-23T07:24:44;99330.97;;;22.13;100.00
62201;BME280;48197;42.732;27.192;2023-05-23T07:27:12;99328.13;;;23.12;100.00
62201;BME280;48197;42.732;27.192;2023-05-23T07:29:39;99325.56;;;24.00;100.00
62201;BME280;48197;42.732;27.192;2023-05-23T07:32:06;99331.28;;;23.68;100.00
62201;BME280;48197;42.732;27.192;2023-05-23T07:34:33;99332.81;;;24.23;96.87
62201;BME280;48197;42.732;27.192;2023-05-23T07:49:11;99335.56;;;25.23;76.74
62201;BME280;48197;42.732;27.192;2023-05-23T07:51:38;99342.19;;;23.87;82.60
62201;BME280;48197;42.732;27.192;2023-05-23T07:54:05;99347.47;;;22.98;85.41
62201;BME280;48197;42.732;27.192;2023-05-23T07:56:32;99354.81;;;22.17;87.49
62201;BME280;48197;42.732;27.192;2023-05-23T07:58:58;99351.19;;;21.55;87.69
62201;BME280;48197;42.732;27.192;2023-05-23T08:01:25;99353.47;;;21.07;89.40
62201;BME280;48197;42.732;27.192;2023-05-23T08:03:51;99354.25;;;20.92;90.79
62201;BME280;48197;42.732;27.192;2023-05-23T08:06:18;99354.66;;;21.00;91.99
62201;BME280;48197;42.732;27.192;2023-05-23T08:08:45;99361.44;;;20.93;91.40
62201;BME280;48197;42.732;27.192;2023-05-23T08:11:12;99363.72;;;21.10;94.51
62201;BME280;48197;42.732;27.192;2023-05-23T08:13:40;99362.66;;;21.07;92.09
62201;BME280;48197;42.732;27.192;2023-05-23T08:16:07;99365.78;;;20.94;91.86
62201;BME280;48197;42.732;27.192;2023-05-23T08:18:34;99360.94;;;20.95;92.63
62201;BME280;48197;42.732;27.192;2023-05-23T08:21:02;99372.06;;;21.34;95.71
62201;BME280;48197;42.732;27.192;2023-05-23T08:23:29;99362.75;;;21.43;94.77
62201;BME280;48197;42.732;27.192;2023-05-23T08:25:57;99360.19;;;21.59;96.45
62201;BME280;48197;42.732;27.192;2023-05-23T08:28:24;99364.72;;;21.92;98.46
62201;BME280;48197;42.732;27.192;2023-05-23T08:30:51;99369.84;;;22.14;94.98
62201;BME280;48197;42.732;27.192;2023-05-23T08:33:19;99364.16;;;21.88;89.30
62201;BME280;48197;42.732;27.192;2023-05-23T08:35:46;99358.81;;;21.55;88.29
62201;BME280;48197;42.732;27.192;2023-05-23T08:38:13;99368.72;;;21.50;88.27
62201;BME280;48197;42.732;27.192;2023-05-23T08:40:40;99365.59;;;21.63;94.22
62201;BME280;48197;42.732;27.192;2023-05-23T08:43:09;99369.22;;;21.84;93.64
62201;BME280;48197;42.732;27.192;2023-05-23T08:45:37;99365.97;;;22.12;95.81
62201;BME280;48197;42.732;27.192;2023-05-23T08:48:07;99368.22;;;22.08;95.62
62201;BME280;48197;42.732;27.192;2023-05-23T08:50:35;99372.53;;;22.03;93.74
62201;BME280;48197;42.732;27.192;2023-05-23T08:53:03;99362.75;;;21.98;89.17
62201;BME280;48197;42.732;27.192;2023-05-23T08:55:30;99378.19;;;21.68;90.30
62201;BME280;48197;42.732;27.192;2023-05-23T08:57:58;99365.09;;;21.65;93.09
62201;BME280;48197;42.732;27.192;2023-05-23T09:00:26;99372.28;;;21.66;96.70
62201;BME280;48197;42.732;27.192;2023-05-23T09:02:53;99372.13;;;21.39;93.55
62201;BME280;48197;42.732;27.192;2023-05-23T09:05:20;99378.50;;;21.40;94.27
62201;BME280;48197;42.732;27.192;2023-05-23T09:07:48;99371.06;;;22.28;91.26
62201;BME280;48197;42.732;27.192;2023-05-23T09:10:16;99377.66;;;22.46;88.27
62201;BME280;48197;42.732;27.192;2023-05-23T09:12:47;99379.03;;;23.02;87.42
62201;BME280;48197;42.732;27.192;2023-05-23T09:15:15;99370.91;;;22.58;87.61
62201;BME280;48197;42.732;27.192;2023-05-23T09:17:43;99375.84;;;22.22;89.53
62201;BME280;48197;42.732;27.192;2023-05-23T09:20:13;99376.56;;;22.17;90.29
62201;BME280;48197;42.732;27.192;2023-05-23T09:22:40;99373.94;;;22.13;91.32
62201;BME280;48197;42.732;27.192;2023-05-23T09:25:06;99369.63;;;22.59;90.62
62201;BME280;48197;42.732;27.192;2023-05-23T09:27:34;99369.94;;;23.99;89.15
62201;BME280;48197;42.732;27.192;2023-05-23T09:30:08;99367.38;;;24.61;87.47
62201;BME280;48197;42.732;27.192;2023-05-23T09:32:35;99359.72;;;25.52;79.67
62201;BME280;48197;42.732;27.192;2023-05-23T09:35:05;99364.00;;;25.87;78.43
62201;BME280;48197;42.732;27.192;2023-05-23T10:13:53;99360.22;;;23.20;81.73
62201;BME280;48197;42.732;27.192;2023-05-23T10:16:54;99345.38;;;23.68;80.94
62201;BME280;48197;42.732;27.192;2023-05-23T10:19:18;99356.66;;;23.68;78.98
62201;BME280;48197;42.732;27.192;2023-05-23T10:21:48;99343.59;;;23.65;78.23
62201;BME280;48197;42.732;27.192;2023-05-23T10:24:16;99337.38;;;24.04;78.71
62201;BME280;48197;42.732;27.192;2023-05-23T10:26:42;99346.22;;;24.34;75.72
62201;BME280;48197;42.732;27.192;2023-05-23T10:29:10;99345.19;;;24.43;73.69
62201;BME280;48197;42.732;27.192;2023-05-23T10:31:38;99341.16;;;24.55;72.94
62201;BME280;48197;42.732;27.192;2023-05-23T10:37:31;99331.34;;;24.39;70.75
62201;BME280;48197;42.732;27.192;2023-05-23T10:39:39;99331.13;;;24.49;72.30
62201;BME280;48197;42.732;27.192;2023-05-23T10:42:16;99338.88;;;25.04;72.10
62201;BME280;48197;42.732;27.192;2023-05-23T10:44:43;99344.00;;;24.61;71.20
62201;BME280;48197;42.732;27.192;2023-05-23T10:47:10;99341.19;;;23.95;70.39
62201;BME280;48197;42.732;27.192;2023-05-23T10:49:42;99334.84;;;23.63;72.15
62201;BME280;48197;42.732;27.192;2023-05-23T10:52:10;99328.44;;;23.62;72.56
62201;BME280;48197;42.732;27.192;2023-05-23T10:54:46;99331.63;;;23.38;71.94
62201;BME280;48197;42.732;27.192;2023-05-23T10:57:15;99338.56;;;23.37;73.12
62201;BME280;48197;42.732;27.192;2023-05-23T10:59:43;99336.00;;;23.39;73.02
62201;BME280;48197;42.732;27.192;2023-05-23T11:02:15;99332.75;;;23.52;73.56
62201;BME280;48197;42.732;27.192;2023-05-23T11:04:42;99330.91;;;23.49;72.76
62201;BME280;48197;42.732;27.192;2023-05-23T11:07:30;99334.88;;;23.26;75.25
62201;BME280;48197;42.732;27.192;2023-05-23T11:10:09;99341.00;;;22.92;75.91
62201;BME280;48197;42.732;27.192;2023-05-23T11:12:38;99338.84;;;22.81;76.83
62201;BME280;48197;42.732;27.192;2023-05-23T11:17:55;99346.59;;;22.60;76.59
62201;BME280;48197;42.732;27.192;2023-05-23T11:20:26;99347.34;;;22.61;76.01
62201;BME280;48197;42.732;27.192;2023-05-23T11:22:59;99343.53;;;22.90;75.86
62201;BME280;48197;42.732;27.192;2023-05-23T11:25:40;99340.88;;;23.39;74.75
62201;BME280;48197;42.732;27.192;2023-05-23T11:28:11;99336.41;;;24.18;74.69
62201;BME280;48197;42.732;27.192;2023-05-23T11:30:38;99339.59;;;24.49;73.13
62201;BME280;48197;42.732;27.192;2023-05-23T11:33:08;99341.09;;;24.44;72.49
62201;BME280;48197;42.732;27.192;2023-05-23T11:35:37;99345.53;;;24.56;73.03
62201;BME280;48197;42.732;27.192;2023-05-23T11:38:04;99352.16;;;24.48;73.36
62201;BME280;48197;42.732;27.192;2023-05-23T11:40:32;99355.41;;;24.18;75.33
62201;BME280;48197;42.732;27.192;2023-05-23T11:43:01;99362.69;;;23.81;77.40
62201;BME280;48197;42.732;27.192;2023-05-23T11:45:29;99379.59;;;23.07;81.24
62201;BME280;48197;42.732;27.192;2023-05-23T11:47:57;99381.88;;;22.56;83.99
62201;BME280;48197;42.732;27.192;2023-05-23T11:50:24;99375.50;;;22.35;86.29
62201;BME280;48197;42.732;27.192;2023-05-23T11:52:53;99375.31;;;22.65;86.38
62201;BME280;48197;42.732;27.192;2023-05-23T11:55:20;99378.50;;;23.30;84.81
62201;BME280;48197;42.732;27.192;2023-05-23T11:57:48;99364.97;;;23.40;83.35
62201;BME280;48197;42.732;27.192;2023-05-23T12:00:15;99369.44;;;23.20;82.96
62201;BME280;48197;42.732;27.192;2023-05-23T12:02:42;99377.66;;;22.98;83.71
62201;BME280;48197;42.732;27.192;2023-05-23T12:05:10;99377.97;;;22.74;85.27
62201;BME280;48197;42.732;27.192;2023-05-23T12:07:47;99391.44;;;22.90;84.98
62201;BME280;48197;42.732;27.192;2023-05-23T12:10:18;99391.88;;;24.27;82.01
62201;BME280;48197;42.732;27.192;2023-05-23T12:12:47;99380.34;;;24.36;83.22
62201;BME280;48197;42.732;27.192;2023-05-23T12:15:13;99367.16;;;24.99;81.07
62201;BME280;48197;42.732;27.192;2023-05-23T12:17:46;99364.00;;;25.81;78.28
62201;BME280;48197;42.732;27.192;2023-05-23T12:20:12;99366.34;;;25.60;77.38
62201;BME280;48197;42.732;27.192;2023-05-23T12:22:40;99364.84;;;25.54;77.19
62201;BME280;48197;42.732;27.192;2023-05-23T12:25:10;99368.69;;;25.11;76.03
62201;BME280;48197;42.732;27.192;2023-05-23T12:27:38;99374.31;;;25.73;74.57
62201;BME280;48197;42.732;27.192;2023-05-23T12:32:38;99369.72;;;25.19;75.11
62201;BME280;48197;42.732;27.192;2023-05-23T12:35:07;99358.97;;;26.27;71.69
62201;BME280;48197;42.732;27.192;2023-05-23T12:37:34;99373.31;;;25.65;72.56
62201;BME280;48197;42.732;27.192;2023-05-23T12:40:11;99378.41;;;24.71;75.68
62201;BME280;48197;42.732;27.192;2023-05-23T12:42:50;99371.22;;;23.93;79.81
62201;BME280;48197;42.732;27.192;2023-05-23T12:45:35;99378.78;;;23.38;82.60
62201;BME280;48197;42.732;27.192;2023-05-23T12:48:03;99386.81;;;23.13;84.45
62201;BME280;48197;42.732;27.192;2023-05-23T12:50:30;99384.56;;;23.23;85.88
62201;BME280;48197;42.732;27.192;2023-05-23T12:52:57;99388.75;;;24.91;83.13
62201;BME280;48197;42.732;27.192;2023-05-23T12:55:24;99365.53;;;25.94;79.11
62201;BME280;48197;42.732;27.192;2023-05-23T12:57:51;99369.13;;;26.94;76.28
62201;BME280;48197;42.732;27.192;2023-05-23T13:00:18;99365.53;;;27.29;74.18
62201;BME280;48197;42.732;27.192;2023-05-23T13:02:45;99365.00;;;27.56;73.38
62201;BME280;48197;42.732;27.192;2023-05-23T13:05:12;99361.50;;;28.37;71.45
62201;BME280;48197;42.732;27.192;2023-05-23T13:07:39;99363.00;;;29.14;68.36
62201;BME280;48197;42.732;27.192;2023-05-23T13:10:06;99360.69;;;29.84;65.20
62201;BME280;48197;42.732;27.192;2023-05-23T13:12:33;99365.00;;;30.52;63.42
62201;BME280;48197;42.732;27.192;2023-05-23T13:15:00;99371.00;;;29.74;62.36
62201;BME280;48197;42.732;27.192;2023-05-23T13:17:27;99363.47;;;27.79;67.67
62201;BME280;48197;42.732;27.192;2023-05-23T13:19:54;99357.34;;;26.43;72.58
62201;BME280;48197;42.732;27.192;2023-05-23T13:22:21;99355.56;;;25.59;75.99
62201;BME280;48197;42.732;27.192;2023-05-23T13:24:48;99360.00;;;25.37;77.42
62201;BME280;48197;42.732;27.192;2023-05-23T13:27:15;99360.00;;;25.20;78.95
62201;BME280;48197;42.732;27.192;2023-05-23T13:29:42;99359.41;;;24.54;81.02
62201;BME280;48197;42.732;27.192;2023-05-23T13:32:09;99352.66;;;23.80;84.24
62201;BME280;48197;42.732;27.192;2023-05-23T13:34:36;99368.69;;;23.26;87.27
62201;BME280;48197;42.732;27.192;2023-05-23T13:37:03;99370.41;;;22.86;93.16
62201;BME280;48197;42.732;27.192;2023-05-23T13:39:31;99365.97;;;22.53;99.57
62201;BME280;48197;42.732;27.192;2023-05-23T13:41:58;99360.63;;;23.07;97.86
62201;BME280;48197;42.732;27.192;2023-05-23T13:44:25;99355.81;;;22.61;99.34
62201;BME280;48197;42.732;27.192;2023-05-23T13:46:53;99353.09;;;22.72;99.45
62201;BME280;48197;42.732;27.192;2023-05-23T13:49:19;99349.66;;;23.15;99.41
62201;BME280;48197;42.732;27.192;2023-05-23T13:51:46;99358.16;;;24.95;91.80
62201;BME280;48197;42.732;27.192;2023-05-23T13:54:13;99347.09;;;25.53;85.96
62201;BME280;48197;42.732;27.192;2023-05-23T13:56:40;99347.59;;;25.57;85.77
62201;BME280;48197;42.732;27.192;2023-05-23T13:59:07;99349.38;;;26.83;80.87
62201;BME280;48197;42.732;27.192;2023-05-23T14:01:34;99355.66;;;27.61;77.06
62201;BME280;48197;42.732;27.192;2023-05-23T14:04:02;99353.72;;;27.75;74.92
62201;BME280;48197;42.732;27.192;2023-05-23T14:06:29;99357.00;;;26.63;77.42
62201;BME280;48197;42.732;27.192;2023-05-23T14:08:57;99357.38;;;25.51;81.56
62201;BME280;48197;42.732;27.192;2023-05-23T14:11:24;99370.94;;;24.51;85.42
62201;BME280;48197;42.732;27.192;2023-05-23T14:13:51;99366.19;;;23.71;89.18
62201;BME280;48197;42.732;27.192;2023-05-23T14:16:17;99357.25;;;23.03;92.35
62201;BME280;48197;42.732;27.192;2023-05-23T14:18:44;99368.41;;;22.66;94.82
62201;BME280;48197;42.732;27.192;2023-05-23T14:21:11;99357.97;;;22.46;95.60
62201;BME280;48197;42.732;27.192;2023-05-23T14:23:38;99354.56;;;22.21;91.79
62201;BME280;48197;42.732;27.192;2023-05-23T14:26:05;99357.00;;;21.87;88.98